sensor_id;sensor_type;location;lat;lon;timestamp;temperature;humidity
9658;DHT22;4867;48.112;11.622;2023-07-13T00:02:00;18.80;99.90
9658;DHT22;4867;48.112;11.622;2023-07-13T00:04:28;18.90;99.90
9658;DHT22;4867;48.112;11.622;2023-07-13T00:07:00;18.90;99.90
9658;DHT22;4867;48.112;11.622;2023-07-13T00:09:27;18.80;99.90
9658;DHT22;4867;48.112;11.622;2023-07-13T00:11:56;18.80;99.90
9658;DHT22;4867;48.112;11.622;2023-07-13T00:14:26;18.80;99.90
9658;DHT22;4867;48.112;11.622;2023-07-13T00:16:54;18.80;99.90
9658;DHT22;4867;48.112;11.622;2023-07-13T00:19:22;18.80;99.90
9658;DHT22;4867;48.112;11.622;2023-07-13T00:21:49;18.80;99.90
9658;DHT22;4867;48.112;11.622;2023-07-13T00:24:18;18.70;99.90
9658;DHT22;4867;48.112;11.622;2023-07-13T00:26:51;18.90;99.90
9658;DHT22;4867;48.112;11.622;2023-07-13T00:29:19;18.90;99.90
9658;DHT22;4867;48.112;11.622;2023-07-13T00:31:48;18.90;99.90
9658;DHT22;4867;48.112;11.622;2023-07-13T00:34:16;18.80;99.90
9658;DHT22;4867;48.112;11.622;2023-07-13T00:36:43;19.00;99.90
9658;DHT22;4867;48.112;11.622;2023-07-13T00:39:11;18.80;99.90
9658;DHT22;4867;48.112;11.622;2023-07-13T00:41:39;18.90;99.90
9658;DHT22;4867;48.112;11.622;2023-07-13T00:44:14;18.90;99.90
9658;DHT22;4867;48.112;11.622;2023-07-13T00:46:42;18.90;99.90
9658;DHT22;4867;48.112;11.622;2023-07-13T00:49:12;19.00;99.90
9658;DHT22;4867;48.112;11.622;2023-07-13T00:51:49;18.90;99.90
9658;DHT22;4867;48.112;11.622;2023-07-13T00:54:24;18.90;99.90
9658;DHT22;4867;48.112;11.622;2023-07-13T00:56:56;18.90;99.90
9658;DHT22;4867;48.112;11.622;2023-07-13T00:59:25;18.70;99.90
9658;DHT22;4867;48.112;11.622;2023-07-13T01:01:53;18.80;99.90
9658;DHT22;4867;48.112;11.622;2023-07-13T01:04:24;18.80;99.90
9658;DHT22;4867;48.112;11.622;2023-07-13T01:06:52;18.80;99.90
9658;DHT22;4867;48.112;11.622;2023-07-13T01:09:21;18.80;99.90
9658;DHT22;4867;48.112;11.622;2023-07-13T01:11:49;18.80;99.90
9658;DHT22;4867;48.112;11.622;2023-07-13T01:14:16;18.80;99.90
9658;DHT22;4867;48.112;11.622;2023-07-13T01:16:46;18.70;99.90
9658;DHT22;4867;48.112;11.622;2023-07-13T01:19:26;18.80;99.90
9658;DHT22;4867;48.112;11.622;2023-07-13T01:22:09;18.80;99.90
9658;DHT22;4867;48.112;11.622;2023-07-13T01:24:40;18.90;99.90
9658;DHT22;4867;48.112;11.622;2023-07-13T01:27:10;18.90;99.90
9658;DHT22;4867;48.112;11.622;2023-07-13T01:29:44;18.80;99.90
9658;DHT22;4867;48.112;11.622;2023-07-13T01:32:17;18.80;99.90
9658;DHT22;4867;48.112;11.622;2023-07-13T01:34:51;18.70;99.90
9658;DHT22;4867;48.112;11.622;2023-07-13T01:37:25;18.70;99.90
9658;DHT22;4867;48.112;11.622;2023-07-13T01:39:53;18.70;99.90
9658;DHT22;4867;48.112;11.622;2023-07-13T01:42:21;18.70;99.90
9658;DHT22;4867;48.112;11.622;2023-07-13T01:44:48;18.70;99.90
9658;DHT22;4867;48.112;11.622;2023-07-13T01:47:16;18.70;99.90
9658;DHT22;4867;48.112;11.622;2023-07-13T01:49:44;18.70;99.90
9658;DHT22;4867;48.112;11.622;2023-07-13T01:52:14;18.70;99.90
9658;DHT22;4867;48.112;11.622;2023-07-13T01:54:42;18.60;99.90
9658;DHT22;4867;48.112;11.622;2023-07-13T01:57:09;18.70;99.90
9658;DHT22;4867;48.112;11.622;2023-07-13T01:59:36;18.70;99.90
9658;DHT22;4867;48.112;11.622;2023-07-13T02:02:07;18.70;99.90
9658;DHT22;4867;48.112;11.622;2023-07-13T02:04:35;18.70;99.90
9658;DHT22;4867;48.112;11.622;2023-07-13T02:07:03;18.60;99.90
9658;DHT22;4867;48.112;11.622;2023-07-13T02:09:30;18.70;99.90
9658;DHT22;4867;48.112;11.622;2023-07-13T02:11:58;18.70;99.90
9658;DHT22;4867;48.112;11.622;2023-07-13T02:14:31;18.60;99.90
9658;DHT22;4867;48.112;11.622;2023-07-13T02:16:58;18.60;99.90
9658;DHT22;4867;48.112;11.622;2023-07-13T02:19:25;18.70;99.90
9658;DHT22;4867;48.112;11.622;2023-07-13T02:21:52;18.80;99.90
9658;DHT22;4867;48.112;11.622;2023-07-13T02:24:20;18.70;99.90
9658;DHT22;4867;48.112;11.622;2023-07-13T02:26:48;18.90;99.90
9658;DHT22;4867;48.112;11.622;2023-07-13T02:29:15;18.70;99.90
9658;DHT22;4867;48.112;11.622;2023-07-13T02:31:45;18.60;99.90
9658;DHT22;4867;48.112;11.622;2023-07-13T02:34:12;18.70;99.90
9658;DHT22;4867;48.112;11.622;2023-07-13T02:36:40;18.80;99.90
9658;DHT22;4867;48.112;11.622;2023-07-13T02:39:08;18.90;99.90
9658;DHT22;4867;48.112;11.622;2023-07-13T02:41:38;18.80;99.90
9658;DHT22;4867;48.112;11.622;2023-07-13T02:44:05;18.80;99.90
9658;DHT22;4867;48.112;11.622;2023-07-13T02:46:36;18.90;99.90
9658;DHT22;4867;48.112;11.622;2023-07-13T02:49:04;19.00;99.90
9658;DHT22;4867;48.112;11.622;2023-07-13T02:51:31;19.00;99.90
9658;DHT22;4867;48.112;11.622;2023-07-13T02:54:04;18.90;99.90
9658;DHT22;4867;48.112;11.622;2023-07-13T02:56:32;18.90;99.90
9658;DHT22;4867;48.112;11.622;2023-07-13T02:58:59;18.90;99.90
9658;DHT22;4867;48.112;11.622;2023-07-13T03:01:27;18.80;99.90
9658;DHT22;4867;48.112;11.622;2023-07-13T03:03:54;18.80;99.90
9658;DHT22;4867;48.112;11.622;2023-07-13T03:06:23;18.80;99.90
9658;DHT22;4867;48.112;11.622;2023-07-13T03:08:53;18.80;99.90
9658;DHT22;4867;48.112;11.622;2023-07-13T03:11:22;18.60;99.90
9658;DHT22;4867;48.112;11.622;2023-07-13T03:13:58;18.40;99.90
9658;DHT22;4867;48.112;11.622;2023-07-13T03:16:27;18.30;99.90
9658;DHT22;4867;48.112;11.622;2023-07-13T03:18:55;18.20;99.90
9658;DHT22;4867;48.112;11.622;2023-07-13T03:21:23;18.20;99.90
9658;DHT22;4867;48.112;11.622;2023-07-13T03:23:50;18.10;99.90
9658;DHT22;4867;48.112;11.622;2023-07-13T03:26:19;18.10;99.90
9658;DHT22;4867;48.112;11.622;2023-07-13T03:28:48;18.00;99.90
9658;DHT22;4867;48.112;11.622;2023-07-13T03:31:21;18.00;99.90
9658;DHT22;4867;48.112;11.622;2023-07-13T03:33:49;17.80;99.90
9658;DHT22;4867;48.112;11.622;2023-07-13T03:36:21;17.80;99.90
9658;DHT22;4867;48.112;11.622;2023-07-13T03:38:54;17.70;99.90
9658;DHT22;4867;48.112;11.622;2023-07-13T03:41:25;17.70;99.90
9658;DHT22;4867;48.112;11.622;2023-07-13T03:43:54;17.70;99.90
9658;DHT22;4867;48.112;11.622;2023-07-13T03:46:24;17.80;99.90
9658;DHT22;4867;48.112;11.622;2023-07-13T03:48:51;17.70;99.90
9658;DHT22;4867;48.112;11.622;2023-07-13T03:51:19;17.80;99.90
9658;DHT22;4867;48.112;11.622;2023-07-13T03:53:47;17.70;99.90
9658;DHT22;4867;48.112;11.622;2023-07-13T03:56:18;17.80;99.90
9658;DHT22;4867;48.112;11.622;2023-07-13T03:58:48;17.90;99.90
9658;DHT22;4867;48.112;11.622;2023-07-13T04:01:21;17.80;99.90
9658;DHT22;4867;48.112;11.622;2023-07-13T04:03:49;17.80;99.90
9658;DHT22;4867;48.112;11.622;2023-07-13T04:06:36;17.70;99.90
9658;DHT22;4867;48.112;11.622;2023-07-13T04:09:04;17.80;99.90
9658;DHT22;4867;48.112;11.622;2023-07-13T04:11:36;17.80;99.90
9658;DHT22;4867;48.112;11.622;2023-07-13T04:14:04;17.80;99.90
9658;DHT22;4867;48.112;11.622;2023-07-13T04:16:31;17.80;99.90
9658;DHT22;4867;48.112;11.622;2023-07-13T04:18:59;17.80;99.90
9658;DHT22;4867;48.112;11.622;2023-07-13T04:21:29;17.70;99.90
9658;DHT22;4867;48.112;11.622;2023-07-13T04:23:58;17.70;99.90
9658;DHT22;4867;48.112;11.622;2023-07-13T04:26:25;17.70;99.90
9658;DHT22;4867;48.112;11.622;2023-07-13T04:28:52;17.70;99.90
9658;DHT22;4867;48.112;11.622;2023-07-13T04:31:20;17.70;99.90
9658;DHT22;4867;48.112;11.622;2023-07-13T04:33:48;17.80;99.90
9658;DHT22;4867;48.112;11.622;2023-07-13T04:36:16;17.80;99.90
9658;DHT22;4867;48.112;11.622;2023-07-13T04:38:43;17.90;99.90
9658;DHT22;4867;48.112;11.622;2023-07-13T04:41:10;17.90;99.90
9658;DHT22;4867;48.112;11.622;2023-07-13T04:43:38;18.00;99.90
9658;DHT22;4867;48.112;11.622;2023-07-13T04:46:10;18.00;99.90
9658;DHT22;4867;48.112;11.622;2023-07-13T04:48:38;18.10;99.90
9658;DHT22;4867;48.112;11.622;2023-07-13T04:51:06;17.90;99.90
9658;DHT22;4867;48.112;11.622;2023-07-13T04:53:34;18.00;99.90
9658;DHT22;4867;48.112;11.622;2023-07-13T04:56:03;18.10;99.90
9658;DHT22;4867;48.112;11.622;2023-07-13T04:58:31;18.00;99.90
9658;DHT22;4867;48.112;11.622;2023-07-13T05:01:03;18.20;99.90
9658;DHT22;4867;48.112;11.622;2023-07-13T05:03:32;18.00;99.90
9658;DHT22;4867;48.112;11.622;2023-07-13T05:06:03;18.20;99.90
9658;DHT22;4867;48.112;11.622;2023-07-13T05:08:30;18.20;99.90
9658;DHT22;4867;48.112;11.622;2023-07-13T05:11:00;18.20;99.90
9658;DHT22;4867;48.112;11.622;2023-07-13T05:13:27;18.30;99.90
9658;DHT22;4867;48.112;11.622;2023-07-13T05:16:01;18.20;99.90
9658;DHT22;4867;48.112;11.622;2023-07-13T05:18:29;18.10;99.90
9658;DHT22;4867;48.112;11.622;2023-07-13T05:21:03;18.20;99.90
9658;DHT22;4867;48.112;11.622;2023-07-13T05:23:32;18.30;99.90
9658;DHT22;4867;48.112;11.622;2023-07-13T05:25:59;18.30;99.90
9658;DHT22;4867;48.112;11.622;2023-07-13T05:28:27;18.20;99.90
9658;DHT22;4867;48.112;11.622;2023-07-13T05:30:56;18.30;99.90
9658;DHT22;4867;48.112;11.622;2023-07-13T05:33:24;18.30;99.90
9658;DHT22;4867;48.112;11.622;2023-07-13T05:35:52;18.40;99.90
9658;DHT22;4867;48.112;11.622;2023-07-13T05:38:19;18.50;99.90
9658;DHT22;4867;48.112;11.622;2023-07-13T05:40:48;18.40;99.90
9658;DHT22;4867;48.112;11.622;2023-07-13T05:43:15;18.40;99.90
9658;DHT22;4867;48.112;11.622;2023-07-13T05:45:43;18.30;99.90
9658;DHT22;4867;48.112;11.622;2023-07-13T05:48:10;18.40;99.90
9658;DHT22;4867;48.112;11.622;2023-07-13T05:50:37;18.40;99.90
9658;DHT22;4867;48.112;11.622;2023-07-13T05:53:04;18.40;99.90
9658;DHT22;4867;48.112;11.622;2023-07-13T05:55:32;18.40;99.90
9658;DHT22;4867;48.112;11.622;2023-07-13T05:58:01;18.50;99.90
9658;DHT22;4867;48.112;11.622;2023-07-13T06:00:28;18.60;99.90
9658;DHT22;4867;48.112;11.622;2023-07-13T06:02:56;18.70;99.90
9658;DHT22;4867;48.112;11.622;2023-07-13T06:05:24;18.70;99.90
9658;DHT22;4867;48.112;11.622;2023-07-13T06:07:51;19.00;99.90
9658;DHT22;4867;48.112;11.622;2023-07-13T06:10:18;19.00;99.90
9658;DHT22;4867;48.112;11.622;2023-07-13T06:12:45;19.10;99.90
9658;DHT22;4867;48.112;11.622;2023-07-13T06:15:13;19.10;99.90
9658;DHT22;4867;48.112;11.622;2023-07-13T06:17:43;19.20;99.90
9658;DHT22;4867;48.112;11.622;2023-07-13T06:20:11;19.30;99.90
9658;DHT22;4867;48.112;11.622;2023-07-13T06:22:38;19.30;99.90
9658;DHT22;4867;48.112;11.622;2023-07-13T06:25:06;19.40;99.90
9658;DHT22;4867;48.112;11.622;2023-07-13T06:27:33;19.50;99.90
9658;DHT22;4867;48.112;11.622;2023-07-13T06:30:00;19.60;99.90
9658;DHT22;4867;48.112;11.622;2023-07-13T06:32:28;19.70;99.90
9658;DHT22;4867;48.112;11.622;2023-07-13T06:34:55;19.80;99.90
9658;DHT22;4867;48.112;11.622;2023-07-13T06:37:23;19.90;99.90
9658;DHT22;4867;48.112;11.622;2023-07-13T06:39:50;20.10;99.90
9658;DHT22;4867;48.112;11.622;2023-07-13T06:42:17;20.20;99.90
9658;DHT22;4867;48.112;11.622;2023-07-13T06:44:44;20.10;99.90
9658;DHT22;4867;48.112;11.622;2023-07-13T06:47:12;20.30;99.90
9658;DHT22;4867;48.112;11.622;2023-07-13T06:49:39;20.30;99.90
9658;DHT22;4867;48.112;11.622;2023-07-13T06:52:07;20.20;99.90
9658;DHT22;4867;48.112;11.622;2023-07-13T06:54:34;20.20;99.90
9658;DHT22;4867;48.112;11.622;2023-07-13T06:57:02;20.20;99.90
9658;DHT22;4867;48.112;11.622;2023-07-13T06:59:29;20.10;99.90
9658;DHT22;4867;48.112;11.622;2023-07-13T07:01:56;20.00;99.90
9658;DHT22;4867;48.112;11.622;2023-07-13T07:04:24;20.30;99.90
9658;DHT22;4867;48.112;11.622;2023-07-13T07:06:51;20.20;99.90
9658;DHT22;4867;48.112;11.622;2023-07-13T07:09:18;20.30;99.90
9658;DHT22;4867;48.112;11.622;2023-07-13T07:11:45;20.50;99.90
9658;DHT22;4867;48.112;11.622;2023-07-13T07:14:29;20.60;99.90
9658;DHT22;4867;48.112;11.622;2023-07-13T07:16:56;20.60;99.90
9658;DHT22;4867;48.112;11.622;2023-07-13T07:19:23;20.70;99.90
9658;DHT22;4867;48.112;11.622;2023-07-13T07:21:50;20.90;99.90
9658;DHT22;4867;48.112;11.622;2023-07-13T07:24:18;21.10;99.90
9658;DHT22;4867;48.112;11.622;2023-07-13T07:26:45;21.10;99.90
9658;DHT22;4867;48.112;11.622;2023-07-13T07:29:15;20.80;99.90
9658;DHT22;4867;48.112;11.622;2023-07-13T07:31:45;20.60;99.90
9658;DHT22;4867;48.112;11.622;2023-07-13T07:34:15;20.40;99.90
9658;DHT22;4867;48.112;11.622;2023-07-13T07:36:42;20.40;99.90
9658;DHT22;4867;48.112;11.622;2023-07-13T07:39:13;20.30;99.90
9658;DHT22;4867;48.112;11.622;2023-07-13T07:41:40;20.20;99.90
9658;DHT22;4867;48.112;11.622;2023-07-13T07:44:10;20.20;99.90
9658;DHT22;4867;48.112;11.622;2023-07-13T07:46:39;20.00;99.90
9658;DHT22;4867;48.112;11.622;2023-07-13T07:49:08;20.00;99.90
9658;DHT22;4867;48.112;11.622;2023-07-13T07:51:35;20.00;99.90
9658;DHT22;4867;48.112;11.622;2023-07-13T07:54:04;20.00;99.90
9658;DHT22;4867;48.112;11.622;2023-07-13T07:56:33;20.10;99.90
9658;DHT22;4867;48.112;11.622;2023-07-13T07:59:03;20.10;99.90
9658;DHT22;4867;48.112;11.622;2023-07-13T08:01:33;20.10;99.90
9658;DHT22;4867;48.112;11.622;2023-07-13T08:04:03;20.00;99.90
9658;DHT22;4867;48.112;11.622;2023-07-13T08:06:33;20.00;99.90
9658;DHT22;4867;48.112;11.622;2023-07-13T08:09:04;20.00;99.90
9658;DHT22;4867;48.112;11.622;2023-07-13T08:11:31;19.90;99.90
9658;DHT22;4867;48.112;11.622;2023-07-13T08:14:02;19.80;99.90
9658;DHT22;4867;48.112;11.622;2023-07-13T08:16:29;19.80;99.90
9658;DHT22;4867;48.112;11.622;2023-07-13T08:18:56;19.70;99.90
9658;DHT22;4867;48.112;11.622;2023-07-13T08:21:23;19.60;99.90
9658;DHT22;4867;48.112;11.622;2023-07-13T08:23:51;19.50;99.90
9658;DHT22;4867;48.112;11.622;2023-07-13T08:26:18;19.50;99.90
9658;DHT22;4867;48.112;11.622;2023-07-13T08:28:45;19.40;99.90
9658;DHT22;4867;48.112;11.622;2023-07-13T08:31:12;19.40;99.90
9658;DHT22;4867;48.112;11.622;2023-07-13T08:33:41;19.50;99.90
9658;DHT22;4867;48.112;11.622;2023-07-13T08:36:08;19.40;99.90
9658;DHT22;4867;48.112;11.622;2023-07-13T08:38:35;19.20;99.90
9658;DHT22;4867;48.112;11.622;2023-07-13T08:41:10;19.30;99.90
9658;DHT22;4867;48.112;11.622;2023-07-13T08:43:38;19.20;99.90
9658;DHT22;4867;48.112;11.622;2023-07-13T08:46:12;19.30;99.90
9658;DHT22;4867;48.112;11.622;2023-07-13T08:54:26;19.30;99.90
9658;DHT22;4867;48.112;11.622;2023-07-13T08:56:55;19.40;99.90
9658;DHT22;4867;48.112;11.622;2023-07-13T08:59:27;19.50;99.90
9658;DHT22;4867;48.112;11.622;2023-07-13T09:04:47;19.50;99.90
9658;DHT22;4867;48.112;11.622;2023-07-13T09:07:55;19.60;99.90
9658;DHT22;4867;48.112;11.622;2023-07-13T09:15:51;19.80;99.90
9658;DHT22;4867;48.112;11.622;2023-07-13T09:18:37;20.00;99.90
9658;DHT22;4867;48.112;11.622;2023-07-13T09:21:10;19.90;99.90
9658;DHT22;4867;48.112;11.622;2023-07-13T09:23:39;20.00;99.90
9658;DHT22;4867;48.112;11.622;2023-07-13T09:28:43;20.30;99.90
9658;DHT22;4867;48.112;11.622;2023-07-13T09:33:42;20.60;99.90
9658;DHT22;4867;48.112;11.622;2023-07-13T09:36:28;20.70;99.90
9658;DHT22;4867;48.112;11.622;2023-07-13T09:44:30;20.90;99.90
9658;DHT22;4867;48.112;11.622;2023-07-13T09:46:58;21.00;99.90
9658;DHT22;4867;48.112;11.622;2023-07-13T09:49:34;20.90;99.90
9658;DHT22;4867;48.112;11.622;2023-07-13T09:52:09;20.90;99.90
9658;DHT22;4867;48.112;11.622;2023-07-13T09:54:38;20.80;99.90
9658;DHT22;4867;48.112;11.622;2023-07-13T09:57:14;20.90;99.90
9658;DHT22;4867;48.112;11.622;2023-07-13T09:59:45;21.00;99.90
9658;DHT22;4867;48.112;11.622;2023-07-13T10:02:27;21.20;99.90
9658;DHT22;4867;48.112;11.622;2023-07-13T10:04:58;21.40;99.90
9658;DHT22;4867;48.112;11.622;2023-07-13T10:07:26;21.50;99.90
9658;DHT22;4867;48.112;11.622;2023-07-13T10:10:00;21.60;99.90
9658;DHT22;4867;48.112;11.622;2023-07-13T10:12:30;21.70;99.90
9658;DHT22;4867;48.112;11.622;2023-07-13T10:15:02;21.90;99.90
9658;DHT22;4867;48.112;11.622;2023-07-13T10:17:51;22.00;99.90
9658;DHT22;4867;48.112;11.622;2023-07-13T10:20:20;22.20;99.90
9658;DHT22;4867;48.112;11.622;2023-07-13T10:23:01;22.30;99.90
9658;DHT22;4867;48.112;11.622;2023-07-13T10:25:37;22.50;99.90
9658;DHT22;4867;48.112;11.622;2023-07-13T10:30:55;22.90;99.90
9658;DHT22;4867;48.112;11.622;2023-07-13T10:33:24;23.10;99.90
9658;DHT22;4867;48.112;11.622;2023-07-13T10:36:00;23.40;99.90
9658;DHT22;4867;48.112;11.622;2023-07-13T10:38:29;23.50;99.90
9658;DHT22;4867;48.112;11.622;2023-07-13T10:41:05;23.70;99.90
9658;DHT22;4867;48.112;11.622;2023-07-13T10:43:36;23.80;99.90
9658;DHT22;4867;48.112;11.622;2023-07-13T10:46:10;23.80;99.90
9658;DHT22;4867;48.112;11.622;2023-07-13T10:48:39;24.00;99.90
9658;DHT22;4867;48.112;11.622;2023-07-13T10:51:08;24.10;99.90
9658;DHT22;4867;48.112;11.622;2023-07-13T10:53:38;24.30;99.90
9658;DHT22;4867;48.112;11.622;2023-07-13T10:58:39;24.60;99.90
9658;DHT22;4867;48.112;11.622;2023-07-13T11:03:47;24.50;99.90
9658;DHT22;4867;48.112;11.622;2023-07-13T11:08:57;24.70;99.90
9658;DHT22;4867;48.112;11.622;2023-07-13T11:18:49;24.20;99.10
9658;DHT22;4867;48.112;11.622;2023-07-13T11:21:19;23.90;99.90
9658;DHT22;4867;48.112;11.622;2023-07-13T11:24:04;24.00;99.90
9658;DHT22;4867;48.112;11.622;2023-07-13T11:26:52;24.10;99.70
9658;DHT22;4867;48.112;11.622;2023-07-13T11:32:01;24.30;99.90
9658;DHT22;4867;48.112;11.622;2023-07-13T11:34:44;24.50;99.90
9658;DHT22;4867;48.112;11.622;2023-07-13T11:37:15;24.60;99.90
9658;DHT22;4867;48.112;11.622;2023-07-13T11:39:45;24.70;99.90
9658;DHT22;4867;48.112;11.622;2023-07-13T11:42:16;24.80;99.90
9658;DHT22;4867;48.112;11.622;2023-07-13T11:44:47;25.00;99.90
9658;DHT22;4867;48.112;11.622;2023-07-13T11:47:40;24.40;99.90
9658;DHT22;4867;48.112;11.622;2023-07-13T11:50:22;24.10;99.90
9658;DHT22;4867;48.112;11.622;2023-07-13T11:52:51;24.10;99.90
9658;DHT22;4867;48.112;11.622;2023-07-13T11:55:22;24.10;99.90
9658;DHT22;4867;48.112;11.622;2023-07-13T11:57:57;24.00;99.90
9658;DHT22;4867;48.112;11.622;2023-07-13T12:00:29;24.10;99.90
9658;DHT22;4867;48.112;11.622;2023-07-13T12:03:01;23.90;99.90
9658;DHT22;4867;48.112;11.622;2023-07-13T12:05:29;23.80;99.90
9658;DHT22;4867;48.112;11.622;2023-07-13T12:07:58;23.80;99.90
9658;DHT22;4867;48.112;11.622;2023-07-13T12:10:28;24.10;99.90
9658;DHT22;4867;48.112;11.622;2023-07-13T12:13:04;24.30;99.90
9658;DHT22;4867;48.112;11.622;2023-07-13T12:15:42;24.60;99.90
9658;DHT22;4867;48.112;11.622;2023-07-13T12:18:20;24.80;99.90
9658;DHT22;4867;48.112;11.622;2023-07-13T12:20:50;24.90;99.90
9658;DHT22;4867;48.112;11.622;2023-07-13T12:23:29;24.90;99.90
9658;DHT22;4867;48.112;11.622;2023-07-13T12:25:58;24.70;99.90
9658;DHT22;4867;48.112;11.622;2023-07-13T12:28:38;24.50;98.40
9658;DHT22;4867;48.112;11.622;2023-07-13T12:31:14;24.80;99.90
9658;DHT22;4867;48.112;11.622;2023-07-13T12:33:46;25.40;99.90
9658;DHT22;4867;48.112;11.622;2023-07-13T12:36:13;25.70;99.90
9658;DHT22;4867;48.112;11.622;2023-07-13T12:38:41;26.00;99.90
9658;DHT22;4867;48.112;11.622;2023-07-13T12:41:14;26.10;99.90
9658;DHT22;4867;48.112;11.622;2023-07-13T12:43:42;26.00;99.90
9658;DHT22;4867;48.112;11.622;2023-07-13T12:46:24;26.10;99.90
9658;DHT22;4867;48.112;11.622;2023-07-13T12:48:53;25.90;99.20
9658;DHT22;4867;48.112;11.622;2023-07-13T12:51:39;25.60;99.20
9658;DHT22;4867;48.112;11.622;2023-07-13T12:54:15;25.60;98.70
9658;DHT22;4867;48.112;11.622;2023-07-13T12:56:44;25.30;99.40
9658;DHT22;4867;48.112;11.622;2023-07-13T12:59:18;25.40;99.90
9658;DHT22;4867;48.112;11.622;2023-07-13T13:01:48;25.60;99.80
9658;DHT22;4867;48.112;11.622;2023-07-13T13:04:25;25.60;99.90
9658;DHT22;4867;48.112;11.622;2023-07-13T13:07:05;25.30;99.60
9658;DHT22;4867;48.112;11.622;2023-07-13T13:09:33;24.80;99.80
9658;DHT22;4867;48.112;11.622;2023-07-13T13:12:01;25.10;99.90
9658;DHT22;4867;48.112;11.622;2023-07-13T13:14:28;25.30;99.90
9658;DHT22;4867;48.112;11.622;2023-07-13T13:16:55;25.20;98.50
9658;DHT22;4867;48.112;11.622;2023-07-13T13:19:27;25.00;99.60
9658;DHT22;4867;48.112;11.622;2023-07-13T13:21:56;25.20;99.50
9658;DHT22;4867;48.112;11.622;2023-07-13T13:24:26;25.40;98.70
9658;DHT22;4867;48.112;11.622;2023-07-13T13:26:54;25.70;99.90
9658;DHT22;4867;48.112;11.622;2023-07-13T13:29:24;25.70;99.20
9658;DHT22;4867;48.112;11.622;2023-07-13T13:31:53;25.70;97.90
9658;DHT22;4867;48.112;11.622;2023-07-13T13:34:22;25.30;99.30
9658;DHT22;4867;48.112;11.622;2023-07-13T13:36:52;25.30;97.60
9658;DHT22;4867;48.112;11.622;2023-07-13T13:39:32;25.30;99.50
9658;DHT22;4867;48.112;11.622;2023-07-13T13:42:00;25.00;97.70
9658;DHT22;4867;48.112;11.622;2023-07-13T13:44:27;25.30;99.10
9658;DHT22;4867;48.112;11.622;2023-07-13T13:46:55;25.70;99.70
9658;DHT22;4867;48.112;11.622;2023-07-13T13:49:25;26.00;98.60
9658;DHT22;4867;48.112;11.622;2023-07-13T13:51:58;25.90;97.20
9658;DHT22;4867;48.112;11.622;2023-07-13T13:54:26;25.80;97.20
9658;DHT22;4867;48.112;11.622;2023-07-13T13:56:58;25.80;97.70
9658;DHT22;4867;48.112;11.622;2023-07-13T13:59:27;25.90;96.90
9658;DHT22;4867;48.112;11.622;2023-07-13T14:01:54;25.80;95.70
9658;DHT22;4867;48.112;11.622;2023-07-13T14:04:22;25.80;97.10
9658;DHT22;4867;48.112;11.622;2023-07-13T14:06:49;26.00;96.90
9658;DHT22;4867;48.112;11.622;2023-07-13T14:09:18;26.00;96.50
9658;DHT22;4867;48.112;11.622;2023-07-13T14:11:48;26.20;97.00
9658;DHT22;4867;48.112;11.622;2023-07-13T14:14:21;26.40;97.30
9658;DHT22;4867;48.112;11.622;2023-07-13T14:16:50;26.50;96.40
9658;DHT22;4867;48.112;11.622;2023-07-13T14:19:21;26.60;96.60
9658;DHT22;4867;48.112;11.622;2023-07-13T14:21:49;26.50;96.40
9658;DHT22;4867;48.112;11.622;2023-07-13T14:24:17;26.20;95.10
9658;DHT22;4867;48.112;11.622;2023-07-13T14:26:46;25.90;95.50
9658;DHT22;4867;48.112;11.622;2023-07-13T14:29:17;25.70;96.40
9658;DHT22;4867;48.112;11.622;2023-07-13T14:31:49;25.80;96.50
9658;DHT22;4867;48.112;11.622;2023-07-13T14:34:16;25.90;97.10
9658;DHT22;4867;48.112;11.622;2023-07-13T14:36:49;26.10;96.60
9658;DHT22;4867;48.112;11.622;2023-07-13T14:39:20;25.90;94.80
9658;DHT22;4867;48.112;11.622;2023-07-13T14:41:51;26.00;95.70
9658;DHT22;4867;48.112;11.622;2023-07-13T14:44:22;25.40;94.70
9658;DHT22;4867;48.112;11.622;2023-07-13T14:46:51;25.20;94.40
9658;DHT22;4867;48.112;11.622;2023-07-13T14:49:27;25.30;97.00
9658;DHT22;4867;48.112;11.622;2023-07-13T14:51:58;25.70;94.40
9658;DHT22;4867;48.112;11.622;2023-07-13T14:54:26;25.80;95.30
9658;DHT22;4867;48.112;11.622;2023-07-13T14:56:53;26.10;95.60
9658;DHT22;4867;48.112;11.622;2023-07-13T14:59:20;26.30;95.20
9658;DHT22;4867;48.112;11.622;2023-07-13T15:01:49;26.30;95.00
9658;DHT22;4867;48.112;11.622;2023-07-13T15:04:16;25.80;96.10
9658;DHT22;4867;48.112;11.622;2023-07-13T15:06:57;25.70;95.30
9658;DHT22;4867;48.112;11.622;2023-07-13T15:09:26;25.70;94.50
9658;DHT22;4867;48.112;11.622;2023-07-13T15:11:57;25.50;94.60
9658;DHT22;4867;48.112;11.622;2023-07-13T15:14:26;25.70;95.00
9658;DHT22;4867;48.112;11.622;2023-07-13T15:16:55;25.80;95.30
9658;DHT22;4867;48.112;11.622;2023-07-13T15:19:23;26.10;96.50
9658;DHT22;4867;48.112;11.622;2023-07-13T15:21:54;25.90;95.30
9658;DHT22;4867;48.112;11.622;2023-07-13T15:24:24;25.90;95.80
9658;DHT22;4867;48.112;11.622;2023-07-13T15:26:52;25.70;93.60
9658;DHT22;4867;48.112;11.622;2023-07-13T15:29:19;25.60;94.90
9658;DHT22;4867;48.112;11.622;2023-07-13T15:31:47;25.80;94.60
9658;DHT22;4867;48.112;11.622;2023-07-13T15:34:19;25.80;94.00
9658;DHT22;4867;48.112;11.622;2023-07-13T15:36:47;25.70;95.50
9658;DHT22;4867;48.112;11.622;2023-07-13T15:39:16;25.50;94.80
9658;DHT22;4867;48.112;11.622;2023-07-13T15:41:44;25.50;95.60
9658;DHT22;4867;48.112;11.622;2023-07-13T15:44:27;25.60;94.80
9658;DHT22;4867;48.112;11.622;2023-07-13T15:46:54;25.50;94.00
9658;DHT22;4867;48.112;11.622;2023-07-13T15:49:22;25.60;94.40
9658;DHT22;4867;48.112;11.622;2023-07-13T15:51:49;25.60;94.50
9658;DHT22;4867;48.112;11.622;2023-07-13T15:54:18;25.80;94.30
9658;DHT22;4867;48.112;11.622;2023-07-13T15:56:53;26.20;96.00
9658;DHT22;4867;48.112;11.622;2023-07-13T15:59:21;26.40;94.10
9658;DHT22;4867;48.112;11.622;2023-07-13T16:01:49;26.60;94.40
9658;DHT22;4867;48.112;11.622;2023-07-13T16:04:16;27.10;94.10
9658;DHT22;4867;48.112;11.622;2023-07-13T16:06:47;27.60;93.70
9658;DHT22;4867;48.112;11.622;2023-07-13T16:09:20;28.00;92.30
9658;DHT22;4867;48.112;11.622;2023-07-13T16:11:49;28.10;91.70
9658;DHT22;4867;48.112;11.622;2023-07-13T16:14:17;28.20;91.30
9658;DHT22;4867;48.112;11.622;2023-07-13T16:16:47;28.60;91.20
9658;DHT22;4867;48.112;11.622;2023-07-13T16:19:16;28.40;91.20
9658;DHT22;4867;48.112;11.622;2023-07-13T16:21:46;29.00;91.50
9658;DHT22;4867;48.112;11.622;2023-07-13T16:24:20;29.50;90.90
9658;DHT22;4867;48.112;11.622;2023-07-13T16:26:49;29.70;87.30
9658;DHT22;4867;48.112;11.622;2023-07-13T16:29:21;29.90;89.60
9658;DHT22;4867;48.112;11.622;2023-07-13T16:32:00;30.40;90.10
9658;DHT22;4867;48.112;11.622;2023-07-13T16:34:35;30.50;83.10
9658;DHT22;4867;48.112;11.622;2023-07-13T16:37:18;30.30;84.90
9658;DHT22;4867;48.112;11.622;2023-07-13T16:39:52;30.20;82.50
9658;DHT22;4867;48.112;11.622;2023-07-13T16:42:21;29.50;81.40
9658;DHT22;4867;48.112;11.622;2023-07-13T16:44:48;29.70;83.30
9658;DHT22;4867;48.112;11.622;2023-07-13T16:47:17;29.90;85.90
9658;DHT22;4867;48.112;11.622;2023-07-13T16:49:46;30.20;85.10